createdAt,value
2023-04-08T00:01:33.677Z,7.56
2023-04-08T00:04:00.352Z,7.56
2023-04-08T00:06:27.296Z,7.56
2023-04-08T00:08:53.822Z,7.56
2023-04-08T00:11:20.340Z,7.56
2023-04-08T00:13:47.120Z,7.50
2023-04-08T00:16:13.763Z,7.56
2023-04-08T00:18:41.266Z,7.38
2023-04-08T00:21:07.833Z,7.44
2023-04-08T00:23:34.379Z,7.50
2023-04-08T00:26:01.079Z,7.50
2023-04-08T00:28:27.600Z,7.50
2023-04-08T00:30:54.179Z,7.50
2023-04-08T00:33:20.884Z,7.44
2023-04-08T00:35:47.577Z,7.13
2023-04-08T00:38:14.183Z,7.13
2023-04-08T00:40:40.736Z,7.19
2023-04-08T00:43:07.291Z,7.25
2023-04-08T00:45:34.089Z,7.19
2023-04-08T00:48:02.740Z,7.19
2023-04-08T00:50:29.427Z,7.19
2023-04-08T00:52:56.028Z,7.31
2023-04-08T00:55:22.723Z,7.25
2023-04-08T00:57:49.580Z,7.31
2023-04-08T01:00:16.473Z,7.19
2023-04-08T01:02:52.625Z,7.13
2023-04-08T01:05:46.739Z,7.25
2023-04-08T01:08:14.956Z,7.13
2023-04-08T01:10:44.346Z,7.19
2023-04-08T01:13:12.847Z,7.13
2023-04-08T01:15:42.273Z,7.13
2023-04-08T01:18:12.393Z,7.13
2023-04-08T01:20:41.023Z,7.06
2023-04-08T01:23:39.207Z,7.25
2023-04-08T01:26:05.808Z,7.19
2023-04-08T01:28:34.379Z,7.19
2023-04-08T01:31:02.421Z,7.19
2023-04-08T01:33:29.741Z,7.13
2023-04-08T01:35:58.486Z,7.13
2023-04-08T01:38:26.640Z,7.06
2023-04-08T01:40:55.746Z,7.13
2023-04-08T01:43:24.496Z,7.13
2023-04-08T01:45:54.586Z,6.88
2023-04-08T01:48:22.196Z,6.88
2023-04-08T01:50:49.453Z,6.88
2023-04-08T01:53:16.343Z,6.88
2023-04-08T01:55:44.399Z,6.81
2023-04-08T01:58:16.398Z,6.75
2023-04-08T02:00:43.431Z,6.75
2023-04-08T02:03:13.030Z,6.81
2023-04-08T02:05:40.345Z,6.75
2023-04-08T02:08:07.059Z,6.75
2023-04-08T02:10:33.587Z,6.81
2023-04-08T02:13:01.429Z,6.81
2023-04-08T02:15:29.847Z,6.81
2023-04-08T02:18:02.773Z,6.69
2023-04-08T02:20:38.823Z,6.75
2023-04-08T02:23:14.831Z,6.75
2023-04-08T02:25:44.609Z,6.88
2023-04-08T02:28:12.101Z,6.88
2023-04-08T02:30:46.636Z,6.88
2023-04-08T02:33:14.730Z,6.81
2023-04-08T02:35:43.639Z,6.88
2023-04-08T02:38:11.041Z,6.81
2023-04-08T02:40:37.707Z,6.81
2023-04-08T02:43:04.439Z,6.81
2023-04-08T02:45:33.568Z,6.75
2023-04-08T02:48:01.065Z,6.75
2023-04-08T02:50:27.705Z,6.81
2023-04-08T02:52:54.341Z,6.63
2023-04-08T02:55:20.978Z,6.63
2023-04-08T02:57:48.919Z,6.69
2023-04-08T03:00:16.189Z,6.56
2023-04-08T03:02:42.921Z,6.50
2023-04-08T03:05:10.422Z,6.38
2023-04-08T03:07:37.176Z,6.38
2023-04-08T03:10:04.285Z,6.44
2023-04-08T03:12:31.418Z,6.38
2023-04-08T03:14:58.023Z,6.38
2023-04-08T03:17:24.718Z,6.44
2023-04-08T03:19:51.338Z,6.44
2023-04-08T03:22:17.919Z,6.44
2023-04-08T03:24:44.489Z,6.44
2023-04-08T03:27:12.589Z,6.50
2023-04-08T03:29:39.273Z,6.50
2023-04-08T03:32:06.163Z,6.38
2023-04-08T03:34:34.870Z,6.38
2023-04-08T03:37:01.767Z,6.38
2023-04-08T03:39:28.434Z,6.25
2023-04-08T03:41:54.981Z,6.19
2023-04-08T03:44:21.492Z,6.25
2023-04-08T03:46:48.075Z,6.13
2023-04-08T03:49:14.649Z,6.13
2023-04-08T03:51:41.164Z,6.19
2023-04-08T03:54:07.873Z,6.25
2023-04-08T03:56:34.693Z,6.19
2023-04-08T03:59:01.305Z,6.06
2023-04-08T04:01:27.914Z,6.13
2023-04-08T04:03:54.610Z,6.06
2023-04-08T04:06:21.307Z,6.06
2023-04-08T04:08:48.194Z,6.00
2023-04-08T04:11:15.053Z,5.94
2023-04-08T04:13:41.752Z,5.81
2023-04-08T04:16:08.417Z,5.88
2023-04-08T04:18:35.045Z,6.00
2023-04-08T04:21:05.744Z,5.88
2023-04-08T04:23:32.317Z,5.63
2023-04-08T04:25:58.857Z,5.50
2023-04-08T04:28:25.506Z,5.50
2023-04-08T04:30:52.910Z,5.44
2023-04-08T04:33:20.380Z,5.63
2023-04-08T04:35:47.050Z,5.63
2023-04-08T04:38:13.661Z,5.63
2023-04-08T04:40:44.218Z,5.50
2023-04-08T04:43:10.963Z,5.56
2023-04-08T04:45:37.570Z,5.50
2023-04-08T04:48:04.266Z,5.63
2023-04-08T04:50:30.867Z,5.63
2023-04-08T04:52:57.397Z,5.50
2023-04-08T04:55:23.980Z,5.38
2023-04-08T04:57:50.617Z,5.38
2023-04-08T05:00:17.231Z,5.38
2023-04-08T05:02:44.105Z,5.38
2023-04-08T05:05:10.965Z,5.31
2023-04-08T05:07:38.553Z,5.25
2023-04-08T05:10:05.928Z,5.31
2023-04-08T05:12:32.745Z,5.25
2023-04-08T05:14:59.653Z,5.13
2023-04-08T05:17:26.661Z,5.13
2023-04-08T05:19:53.634Z,5.00
2023-04-08T05:22:20.225Z,4.94
2023-04-08T05:24:46.808Z,4.94
2023-04-08T05:27:13.346Z,4.88
2023-04-08T05:29:39.902Z,4.88
2023-04-08T05:32:06.610Z,4.81
2023-04-08T05:34:33.302Z,4.81
2023-04-08T05:36:59.897Z,4.88
2023-04-08T05:39:26.466Z,4.81
2023-04-08T05:41:53.055Z,4.75
2023-04-08T05:44:19.566Z,4.75
2023-04-08T05:46:46.223Z,4.69
2023-04-08T05:49:12.978Z,4.63
2023-04-08T05:51:40.016Z,4.63
2023-04-08T05:54:06.747Z,4.69
2023-04-08T05:56:33.482Z,4.69
2023-04-08T05:59:00.417Z,4.75
2023-04-08T06:01:27.327Z,4.75
2023-04-08T06:03:56.236Z,4.81
2023-04-08T06:06:23.354Z,4.81
2023-04-08T06:08:50.214Z,4.81
2023-04-08T06:11:17.021Z,4.88
2023-04-08T06:13:43.592Z,5.00
2023-04-08T06:16:19.530Z,5.06
2023-04-08T06:18:47.980Z,5.13
2023-04-08T06:21:14.911Z,5.19
2023-04-08T06:23:41.493Z,5.31
2023-04-08T06:26:08.092Z,5.25
2023-04-08T06:28:34.629Z,5.25
2023-04-08T06:31:01.338Z,5.31
2023-04-08T06:33:27.904Z,5.38
2023-04-08T06:36:04.847Z,5.56
2023-04-08T06:38:32.091Z,5.50
2023-04-08T06:41:06.351Z,5.56
2023-04-08T06:43:33.648Z,5.75
2023-04-08T06:46:00.472Z,5.75
2023-04-08T06:48:30.772Z,5.75
2023-04-08T06:50:58.130Z,5.69
2023-04-08T06:53:25.010Z,5.63
2023-04-08T06:55:51.790Z,5.81
2023-04-08T06:58:18.704Z,5.94
2023-04-08T07:00:45.280Z,6.06
2023-04-08T07:03:12.043Z,5.94
2023-04-08T07:05:42.146Z,5.94
2023-04-08T07:08:09.104Z,6.13
2023-04-08T07:10:35.794Z,6.25
2023-04-08T07:13:02.455Z,6.31
2023-04-08T07:15:29.004Z,6.19
2023-04-08T07:17:57.031Z,6.38
2023-04-08T07:20:24.012Z,6.38
2023-04-08T07:22:50.651Z,6.44
2023-04-08T07:25:17.220Z,6.44
2023-04-08T07:27:44.010Z,6.56
2023-04-08T07:30:10.782Z,6.81
2023-04-08T07:32:37.527Z,6.63
2023-04-08T07:35:04.441Z,6.69
2023-04-08T07:37:31.113Z,6.94
2023-04-08T07:39:57.660Z,7.13
2023-04-08T07:42:24.335Z,7.19
2023-04-08T07:44:52.282Z,7.38
2023-04-08T07:47:18.888Z,7.50
2023-04-08T07:49:48.531Z,7.63
2023-04-08T07:52:15.627Z,7.25
2023-04-08T07:54:42.202Z,7.44
2023-04-08T07:57:08.861Z,7.56
2023-04-08T07:59:36.160Z,7.44
2023-04-08T08:02:03.053Z,7.75
2023-04-08T08:04:29.967Z,8.25
2023-04-08T08:06:56.822Z,7.94
2023-04-08T08:09:23.453Z,8.25
2023-04-08T08:11:49.975Z,8.31
2023-04-08T08:14:16.694Z,8.38
2023-04-08T08:16:44.502Z,8.63
2023-04-08T08:19:12.290Z,8.50
2023-04-08T08:21:39.616Z,8.44
2023-04-08T08:24:06.927Z,8.69
2023-04-08T08:26:39.310Z,8.75
2023-04-08T08:29:08.433Z,9.25
2023-04-08T08:31:35.419Z,9.13
2023-04-08T08:34:02.570Z,9.31
2023-04-08T08:36:29.158Z,9.31
2023-04-08T08:38:55.934Z,9.63
2023-04-08T08:41:22.471Z,9.75
2023-04-08T08:43:49.807Z,10.13
2023-04-08T08:46:19.218Z,10.13
2023-04-08T08:48:46.422Z,9.75
2023-04-08T08:51:13.966Z,10.19
2023-04-08T08:53:45.258Z,10.13
2023-04-08T08:58:41.925Z,10.38
2023-04-08T09:01:33.937Z,10.25
2023-04-08T09:04:16.494Z,10.75
2023-04-08T09:06:44.607Z,10.56
2023-04-08T09:09:11.474Z,10.38
2023-04-08T09:11:46.040Z,10.69
2023-04-08T09:14:23.337Z,10.75
2023-04-08T09:16:51.245Z,11.06
2023-04-08T09:19:18.773Z,11.00
2023-04-08T09:21:45.902Z,11.19
2023-04-08T09:24:28.957Z,11.44
2023-04-08T09:26:56.630Z,11.25
2023-04-08T09:29:26.333Z,11.31
2023-04-08T09:31:56.307Z,11.63
2023-04-08T09:34:24.043Z,11.63
2023-04-08T09:36:51.821Z,12.06
2023-04-08T09:39:18.700Z,11.75
2023-04-08T09:41:49.016Z,12.13
2023-04-08T09:44:17.062Z,12.06
2023-04-08T09:46:49.312Z,11.56
2023-04-08T09:49:39.119Z,12.00
2023-04-08T09:52:11.937Z,12.25
2023-04-08T09:55:06.486Z,12.19
2023-04-08T09:57:43.274Z,12.25
2023-04-08T10:00:15.465Z,12.31
2023-04-08T10:03:19.790Z,12.63
2023-04-08T10:05:47.356Z,12.88
2023-04-08T10:08:15.417Z,12.81
2023-04-08T10:10:43.622Z,12.63
2023-04-08T10:13:10.351Z,12.75
2023-04-08T10:15:38.413Z,12.63
2023-04-08T10:18:05.525Z,12.75
2023-04-08T10:20:38.062Z,13.44
2023-04-08T10:23:09.424Z,13.06
2023-04-08T10:25:39.425Z,13.63
2023-04-08T10:28:11.894Z,14.00
2023-04-08T10:30:42.318Z,13.69
2023-04-08T10:33:33.041Z,13.38
2023-04-08T10:36:11.591Z,13.69
2023-04-08T10:38:39.277Z,14.13
2023-04-08T10:41:05.836Z,14.13
2023-04-08T10:43:33.831Z,13.88
2023-04-08T10:46:01.401Z,13.94
2023-04-08T10:48:31.608Z,14.50
2023-04-08T10:51:03.871Z,14.50
2023-04-08T10:53:35.804Z,14.13
2023-04-08T10:56:15.084Z,14.19
2023-04-08T10:58:52.750Z,14.44
2023-04-08T11:01:19.992Z,14.50
2023-04-08T11:03:47.176Z,14.56
2023-04-08T11:06:13.962Z,14.19
2023-04-08T11:08:40.623Z,14.75
2023-04-08T11:11:11.652Z,14.69
2023-04-08T11:13:52.607Z,15.19
2023-04-08T11:16:21.280Z,14.94
2023-04-08T11:18:48.389Z,14.94
2023-04-08T11:21:15.469Z,14.81
2023-04-08T11:23:42.721Z,14.94
2023-04-08T11:26:10.655Z,15.00
2023-04-08T11:28:37.494Z,14.44
2023-04-08T11:31:04.450Z,14.06
2023-04-08T11:33:32.139Z,14.63
2023-04-08T11:36:02.210Z,14.00
2023-04-08T11:38:29.262Z,13.88
2023-04-08T11:40:58.653Z,14.06
2023-04-08T11:43:26.275Z,13.94
2023-04-08T11:45:52.964Z,14.44
2023-04-08T11:48:19.789Z,14.31
2023-04-08T11:50:46.584Z,14.63
2023-04-08T11:53:20.818Z,14.38
2023-04-08T11:55:48.625Z,14.44
2023-04-08T11:58:15.776Z,15.13
2023-04-08T12:00:43.541Z,14.75
2023-04-08T12:03:11.082Z,14.56
2023-04-08T12:05:37.820Z,14.69
2023-04-08T12:08:04.628Z,15.13
2023-04-08T12:10:31.249Z,15.13
2023-04-08T12:12:57.779Z,14.94
2023-04-08T12:15:24.313Z,15.50
2023-04-08T12:17:50.895Z,15.25
2023-04-08T12:20:17.610Z,15.38
2023-04-08T12:22:44.119Z,15.44
2023-04-08T12:25:10.747Z,15.13
2023-04-08T12:27:37.321Z,15.00
2023-04-08T12:30:04.686Z,14.56
2023-04-08T12:32:31.723Z,15.06
2023-04-08T12:34:58.393Z,14.75
2023-04-08T12:37:24.916Z,14.56
2023-04-08T12:39:51.553Z,14.63
2023-04-08T12:42:18.260Z,14.75
2023-04-08T12:44:44.895Z,14.63
2023-04-08T12:47:11.500Z,14.56
2023-04-08T12:52:07.543Z,14.06
2023-04-08T12:54:34.136Z,14.31
2023-04-08T12:57:01.660Z,14.06
2023-04-08T12:59:28.372Z,14.25
2023-04-08T13:01:55.341Z,14.13
2023-04-08T13:04:22.197Z,14.25
2023-04-08T13:06:48.720Z,14.25
2023-04-08T13:09:15.482Z,14.38
2023-04-08T13:11:42.112Z,14.31
2023-04-08T13:14:08.732Z,14.50
2023-04-08T13:16:35.356Z,14.69
2023-04-08T13:19:01.969Z,14.44
2023-04-08T13:21:28.543Z,14.00
2023-04-08T13:23:55.184Z,14.13
2023-04-08T13:26:22.132Z,14.38
2023-04-08T13:28:56.674Z,14.75
2023-04-08T13:31:25.033Z,14.56
2023-04-08T13:33:51.652Z,15.19
2023-04-08T13:36:18.679Z,15.69
2023-04-08T13:38:46.066Z,15.88
2023-04-08T13:41:12.636Z,14.88
2023-04-08T13:43:39.632Z,14.69
2023-04-08T13:46:06.295Z,14.75
2023-04-08T13:48:32.884Z,15.00
2023-04-08T13:50:59.426Z,14.88
2023-04-08T13:53:26.107Z,14.63
2023-04-08T13:55:55.927Z,14.75
2023-04-08T13:58:24.255Z,14.50
2023-04-08T14:00:52.085Z,14.50
2023-04-08T14:03:19.289Z,14.25
2023-04-08T14:05:46.081Z,14.25
2023-04-08T14:08:13.641Z,13.75
2023-04-08T14:10:42.154Z,13.81
2023-04-08T14:13:09.082Z,14.81
2023-04-08T14:15:35.745Z,15.19
2023-04-08T14:18:02.428Z,14.44
2023-04-08T14:20:29.626Z,13.94
2023-04-08T14:22:56.792Z,14.25
2023-04-08T14:25:24.008Z,15.19
2023-04-08T14:27:57.953Z,15.88
2023-04-08T14:30:26.882Z,15.88
2023-04-08T14:32:54.019Z,15.88
2023-04-08T14:35:20.674Z,15.00
2023-04-08T14:37:47.263Z,14.38
2023-04-08T14:40:13.902Z,14.50
2023-04-08T14:42:40.597Z,14.94
2023-04-08T14:45:07.711Z,14.81
2023-04-08T14:47:34.344Z,14.56
2023-04-08T14:50:01.044Z,14.13
2023-04-08T14:52:27.732Z,14.25
2023-04-08T14:54:54.302Z,14.44
2023-04-08T14:57:20.831Z,14.38
2023-04-08T14:59:47.487Z,14.81
2023-04-08T15:02:14.230Z,15.06
2023-04-08T15:04:40.914Z,15.19
2023-04-08T15:07:07.549Z,15.00
2023-04-08T15:09:34.114Z,14.56
2023-04-08T15:12:01.277Z,15.00
2023-04-08T15:14:28.198Z,14.69
2023-04-08T15:16:54.728Z,15.06
2023-04-08T15:19:21.247Z,15.13
2023-04-08T15:21:47.766Z,14.94
2023-04-08T15:24:14.348Z,14.88
2023-04-08T15:26:41.100Z,14.75
2023-04-08T15:29:07.900Z,14.44
2023-04-08T15:31:35.178Z,14.88
2023-04-08T15:34:02.685Z,14.69
2023-04-08T15:36:30.132Z,13.94
2023-04-08T15:38:56.900Z,14.00
2023-04-08T15:41:23.532Z,13.94
2023-04-08T15:43:50.240Z,14.06
2023-04-08T15:46:23.190Z,14.19
2023-04-08T15:48:50.813Z,14.06
2023-04-08T15:51:17.947Z,14.31
2023-04-08T15:53:44.549Z,14.31
2023-04-08T15:56:17.918Z,14.44
2023-04-08T15:58:45.684Z,14.25
2023-04-08T16:01:12.420Z,13.94
2023-04-08T16:03:39.641Z,14.25
2023-04-08T16:06:06.447Z,14.00
2023-04-08T16:08:34.792Z,14.00
2023-04-08T16:11:04.911Z,13.69
2023-04-08T16:13:31.594Z,13.69
2023-04-08T16:15:58.838Z,13.44
2023-04-08T16:18:25.776Z,13.50
2023-04-08T16:20:52.901Z,13.44
2023-04-08T16:23:19.918Z,13.38
2023-04-08T16:25:46.909Z,13.44
2023-04-08T16:28:13.528Z,13.25
2023-04-08T16:30:43.451Z,13.25
2023-04-08T16:33:11.309Z,13.44
2023-04-08T16:35:38.220Z,13.75
2023-04-08T16:38:04.881Z,13.75
2023-04-08T16:40:33.373Z,13.63
2023-04-08T16:43:00.948Z,13.88
2023-04-08T16:45:32.420Z,14.06
2023-04-08T16:48:00.405Z,13.94
2023-04-08T16:50:28.182Z,14.06
2023-04-08T16:52:54.813Z,13.94
2023-04-08T16:55:21.387Z,14.06
2023-04-08T16:57:48.026Z,14.13
2023-04-08T17:00:16.892Z,14.00
2023-04-08T17:02:44.867Z,14.31
2023-04-08T17:05:11.647Z,14.44
2023-04-08T17:07:38.257Z,13.94
2023-04-08T17:10:05.451Z,13.63
2023-04-08T17:12:32.739Z,13.38
2023-04-08T17:14:59.269Z,13.56
2023-04-08T17:17:25.867Z,13.63
2023-04-08T17:19:53.065Z,13.50
2023-04-08T17:22:19.658Z,13.50
2023-04-08T17:24:47.986Z,13.69
2023-04-08T17:27:14.851Z,13.63
2023-04-08T17:29:41.458Z,13.38
2023-04-08T17:32:08.138Z,13.31
2023-04-08T17:34:34.863Z,13.44
2023-04-08T17:37:01.452Z,13.38
2023-04-08T17:39:27.998Z,13.25
2023-04-08T17:41:54.523Z,13.19
2023-04-08T17:44:21.707Z,13.13
2023-04-08T17:46:48.287Z,13.00
2023-04-08T17:49:14.928Z,12.63
2023-04-08T17:51:41.601Z,12.38
2023-04-08T17:54:08.181Z,12.25
2023-04-08T17:56:34.741Z,12.31
2023-04-08T17:59:01.724Z,12.25
2023-04-08T18:01:28.336Z,12.13
2023-04-08T18:03:55.657Z,12.13
2023-04-08T18:06:22.498Z,12.13
2023-04-08T18:08:49.449Z,12.00
2023-04-08T18:11:16.282Z,12.00
2023-04-08T18:13:42.941Z,12.06
2023-04-08T18:16:17.177Z,12.06
2023-04-08T18:18:44.140Z,12.00
2023-04-08T18:21:10.878Z,12.00
2023-04-08T18:23:40.584Z,11.94
2023-04-08T18:26:07.693Z,11.88
2023-04-08T18:28:34.455Z,12.00
2023-04-08T18:31:01.099Z,12.00
2023-04-08T18:33:28.219Z,11.88
2023-04-08T18:35:56.131Z,11.88
2023-04-08T18:38:24.276Z,11.94
2023-04-08T18:40:51.190Z,11.94
2023-04-08T18:43:17.742Z,11.94
2023-04-08T18:45:44.314Z,11.94
2023-04-08T18:48:12.283Z,11.94
2023-04-08T18:50:38.917Z,11.88
2023-04-08T18:53:06.377Z,11.75
2023-04-08T18:55:35.917Z,11.75
2023-04-08T18:58:02.524Z,11.81
2023-04-08T19:00:29.131Z,11.75
2023-04-08T19:02:56.497Z,11.81
2023-04-08T19:05:24.163Z,11.81
2023-04-08T19:07:50.952Z,11.94
2023-04-08T19:10:17.538Z,11.81
2023-04-08T19:12:44.096Z,11.81
2023-04-08T19:15:11.156Z,11.75
2023-04-08T19:17:37.783Z,11.75
2023-04-08T19:20:04.631Z,11.81
2023-04-08T19:22:31.968Z,11.69
2023-04-08T19:24:58.538Z,11.56
2023-04-08T19:27:25.245Z,11.25
2023-04-08T19:29:52.089Z,11.06
2023-04-08T19:32:18.999Z,11.19
2023-04-08T19:34:45.776Z,11.19
2023-04-08T19:37:12.348Z,11.13
2023-04-08T19:39:38.868Z,10.94
2023-04-08T19:42:05.631Z,10.69
2023-04-08T19:44:32.243Z,10.81
2023-04-08T19:46:59.618Z,10.75
2023-04-08T19:49:26.492Z,10.63
2023-04-08T19:51:53.123Z,10.69
2023-04-08T19:54:19.682Z,10.50
2023-04-08T19:56:47.307Z,10.44
2023-04-08T19:59:13.856Z,10.44
2023-04-08T20:01:40.970Z,10.44
2023-04-08T20:04:07.765Z,10.38
2023-04-08T20:06:34.773Z,10.31
2023-04-08T20:09:05.327Z,10.31
2023-04-08T20:11:32.977Z,10.19
2023-04-08T20:13:59.710Z,10.13
2023-04-08T20:16:26.764Z,10.13
2023-04-08T20:18:53.508Z,10.00
2023-04-08T20:21:20.153Z,10.00
2023-04-08T20:23:47.243Z,9.94
2023-04-08T20:26:14.373Z,9.94
2023-04-08T20:28:43.346Z,9.88
2023-04-08T20:31:10.292Z,9.81
2023-04-08T20:33:43.808Z,9.81
2023-04-08T20:36:13.613Z,9.88
2023-04-08T20:38:40.688Z,9.63
2023-04-08T20:41:07.206Z,9.69
2023-04-08T20:43:33.944Z,9.56
2023-04-08T20:46:01.056Z,9.63
2023-04-08T20:48:29.253Z,9.56
2023-04-08T20:50:56.215Z,9.56
2023-04-08T20:53:23.639Z,9.50
2023-04-08T20:55:50.292Z,9.31
2023-04-08T20:58:18.138Z,9.31
2023-04-08T21:00:44.747Z,9.31
2023-04-08T21:03:11.357Z,9.38
2023-04-08T21:05:38.186Z,9.25
2023-04-08T21:08:05.108Z,9.13
2023-04-08T21:10:31.826Z,9.00
2023-04-08T21:12:59.965Z,8.94
2023-04-08T21:15:27.317Z,8.88
2023-04-08T21:17:53.963Z,8.75
2023-04-08T21:20:20.608Z,8.50
2023-04-08T21:22:47.114Z,8.38
2023-04-08T21:25:13.783Z,8.25
2023-04-08T21:27:43.213Z,8.06
2023-04-08T21:30:10.161Z,8.06
2023-04-08T21:32:36.922Z,8.00
2023-04-08T21:35:03.632Z,7.88
2023-04-08T21:37:30.161Z,7.69
2023-04-08T21:39:56.768Z,7.63
2023-04-08T21:42:25.059Z,7.63
2023-04-08T21:44:51.937Z,7.75
2023-04-08T21:47:18.510Z,7.81
2023-04-08T21:49:45.179Z,7.88
2023-04-08T21:52:11.801Z,7.75
2023-04-08T21:54:38.665Z,7.75
2023-04-08T21:57:05.283Z,7.81
2023-04-08T21:59:31.814Z,7.81
2023-04-08T22:01:59.569Z,7.94
2023-04-08T22:04:26.155Z,7.81
2023-04-08T22:06:53.141Z,8.00
2023-04-08T22:09:19.712Z,8.13
2023-04-08T22:11:46.411Z,8.19
2023-04-08T22:14:12.970Z,8.19
2023-04-08T22:16:39.648Z,8.19
2023-04-08T22:19:06.567Z,8.25
2023-04-08T22:21:33.120Z,8.25
2023-04-08T22:23:59.680Z,8.31
2023-04-08T22:26:27.485Z,8.31
2023-04-08T22:28:54.325Z,8.56
2023-04-08T22:31:21.341Z,8.63
2023-04-08T22:33:48.118Z,8.63
2023-04-08T22:36:14.682Z,8.63
2023-04-08T22:38:41.763Z,8.75
2023-04-08T22:41:19.852Z,8.88
2023-04-08T22:43:46.825Z,8.88
2023-04-08T22:46:14.465Z,8.88
2023-04-08T22:48:41.617Z,8.88
2023-04-08T22:51:08.396Z,8.94
2023-04-08T22:53:35.204Z,8.94
2023-04-08T22:56:01.947Z,9.00
2023-04-08T22:58:28.658Z,9.06
2023-04-08T23:00:55.536Z,9.00
2023-04-08T23:03:22.224Z,9.06
2023-04-08T23:05:49.537Z,9.06
2023-04-08T23:08:16.384Z,9.06
2023-04-08T23:10:42.981Z,9.13
2023-04-08T23:13:09.689Z,9.13
2023-04-08T23:15:36.394Z,9.13
2023-04-08T23:18:02.979Z,9.19
2023-04-08T23:20:29.564Z,9.19
2023-04-08T23:22:56.176Z,9.19
2023-04-08T23:25:22.802Z,9.13
2023-04-08T23:27:49.376Z,9.19
2023-04-08T23:30:15.904Z,9.13
2023-04-08T23:32:42.867Z,9.13
2023-04-08T23:35:09.670Z,9.19
2023-04-08T23:37:36.213Z,9.13
2023-04-08T23:40:02.815Z,9.13
2023-04-08T23:42:29.376Z,9.19
2023-04-08T23:44:55.908Z,9.19
2023-04-08T23:47:22.933Z,9.19
2023-04-08T23:49:49.551Z,9.19
2023-04-08T23:52:16.269Z,9.19
2023-04-08T23:54:42.781Z,9.19
2023-04-08T23:57:09.309Z,9.19
2023-04-08T23:59:36.086Z,9.13
